sensor_id;sensor_type;location;lat;lon;timestamp;temperature;humidity
8824;DHT22;4448;50.904;4.694;2022-09-01T00:02:16;19.90;99.90
8824;DHT22;4448;50.904;4.694;2022-09-01T00:04:44;19.90;99.90
8824;DHT22;4448;50.904;4.694;2022-09-01T00:07:11;19.80;99.90
8824;DHT22;4448;50.904;4.694;2022-09-01T00:09:37;19.80;99.90
8824;DHT22;4448;50.904;4.694;2022-09-01T00:12:05;19.80;99.90
8824;DHT22;4448;50.904;4.694;2022-09-01T00:14:36;19.70;99.90
8824;DHT22;4448;50.904;4.694;2022-09-01T00:17:05;19.70;99.90
8824;DHT22;4448;50.904;4.694;2022-09-01T00:19:32;19.70;99.90
8824;DHT22;4448;50.904;4.694;2022-09-01T00:22:00;19.80;99.90
8824;DHT22;4448;50.904;4.694;2022-09-01T00:24:28;19.70;99.90
8824;DHT22;4448;50.904;4.694;2022-09-01T00:26:55;19.70;99.90
8824;DHT22;4448;50.904;4.694;2022-09-01T00:29:21;19.60;99.90
8824;DHT22;4448;50.904;4.694;2022-09-01T00:31:48;19.60;99.90
8824;DHT22;4448;50.904;4.694;2022-09-01T00:34:14;19.60;99.90
8824;DHT22;4448;50.904;4.694;2022-09-01T00:36:40;19.40;99.90
8824;DHT22;4448;50.904;4.694;2022-09-01T00:39:07;19.40;99.90
8824;DHT22;4448;50.904;4.694;2022-09-01T00:41:36;19.30;99.90
8824;DHT22;4448;50.904;4.694;2022-09-01T00:44:05;19.20;99.90
8824;DHT22;4448;50.904;4.694;2022-09-01T00:46:35;19.10;99.90
8824;DHT22;4448;50.904;4.694;2022-09-01T00:49:11;19.30;99.90
8824;DHT22;4448;50.904;4.694;2022-09-01T00:51:39;19.00;99.90
8824;DHT22;4448;50.904;4.694;2022-09-01T00:54:12;19.00;99.90
8824;DHT22;4448;50.904;4.694;2022-09-01T00:56:40;19.00;99.90
8824;DHT22;4448;50.904;4.694;2022-09-01T00:59:07;19.00;99.90
8824;DHT22;4448;50.904;4.694;2022-09-01T01:01:34;19.00;99.90
8824;DHT22;4448;50.904;4.694;2022-09-01T01:04:02;19.10;99.90
8824;DHT22;4448;50.904;4.694;2022-09-01T01:06:28;19.00;99.90
8824;DHT22;4448;50.904;4.694;2022-09-01T01:08:59;19.00;99.90
8824;DHT22;4448;50.904;4.694;2022-09-01T01:11:29;19.00;99.90
8824;DHT22;4448;50.904;4.694;2022-09-01T01:13:59;18.90;99.90
8824;DHT22;4448;50.904;4.694;2022-09-01T01:16:30;19.00;99.90
8824;DHT22;4448;50.904;4.694;2022-09-01T01:18:56;18.90;99.90
8824;DHT22;4448;50.904;4.694;2022-09-01T01:21:28;19.00;99.90
8824;DHT22;4448;50.904;4.694;2022-09-01T01:24:31;19.00;99.90
8824;DHT22;4448;50.904;4.694;2022-09-01T01:27:00;19.00;99.90
8824;DHT22;4448;50.904;4.694;2022-09-01T01:29:30;18.90;99.90
8824;DHT22;4448;50.904;4.694;2022-09-01T01:31:56;18.80;99.90
8824;DHT22;4448;50.904;4.694;2022-09-01T01:34:22;18.80;99.90
8824;DHT22;4448;50.904;4.694;2022-09-01T01:36:49;18.80;99.90
8824;DHT22;4448;50.904;4.694;2022-09-01T01:39:19;18.90;99.90
8824;DHT22;4448;50.904;4.694;2022-09-01T01:41:46;18.70;99.90
8824;DHT22;4448;50.904;4.694;2022-09-01T01:44:16;18.70;99.90
8824;DHT22;4448;50.904;4.694;2022-09-01T01:46:45;18.70;99.90
8824;DHT22;4448;50.904;4.694;2022-09-01T01:49:13;18.70;99.90
8824;DHT22;4448;50.904;4.694;2022-09-01T01:51:45;18.60;99.90
8824;DHT22;4448;50.904;4.694;2022-09-01T01:54:12;18.60;99.90
8824;DHT22;4448;50.904;4.694;2022-09-01T01:56:38;18.60;99.90
8824;DHT22;4448;50.904;4.694;2022-09-01T01:59:07;18.50;99.90
8824;DHT22;4448;50.904;4.694;2022-09-01T02:01:42;18.60;99.90
8824;DHT22;4448;50.904;4.694;2022-09-01T02:04:09;18.70;99.90
8824;DHT22;4448;50.904;4.694;2022-09-01T02:06:36;18.60;99.90
8824;DHT22;4448;50.904;4.694;2022-09-01T02:09:05;18.60;99.90
8824;DHT22;4448;50.904;4.694;2022-09-01T02:11:32;18.50;99.90
8824;DHT22;4448;50.904;4.694;2022-09-01T02:13:59;18.30;99.90
8824;DHT22;4448;50.904;4.694;2022-09-01T02:16:30;18.60;99.90
8824;DHT22;4448;50.904;4.694;2022-09-01T02:18:57;18.50;99.90
8824;DHT22;4448;50.904;4.694;2022-09-01T02:21:24;18.30;99.90
8824;DHT22;4448;50.904;4.694;2022-09-01T02:23:58;18.30;99.90
8824;DHT22;4448;50.904;4.694;2022-09-01T02:26:33;18.10;99.90
8824;DHT22;4448;50.904;4.694;2022-09-01T02:29:01;18.10;99.90
8824;DHT22;4448;50.904;4.694;2022-09-01T02:31:30;18.10;99.90
8824;DHT22;4448;50.904;4.694;2022-09-01T02:33:57;18.20;99.90
8824;DHT22;4448;50.904;4.694;2022-09-01T02:36:24;18.20;99.90
8824;DHT22;4448;50.904;4.694;2022-09-01T02:38:51;18.50;99.90
8824;DHT22;4448;50.904;4.694;2022-09-01T02:41:17;18.30;99.90
8824;DHT22;4448;50.904;4.694;2022-09-01T02:43:45;18.40;99.90
8824;DHT22;4448;50.904;4.694;2022-09-01T02:46:11;18.40;99.90
8824;DHT22;4448;50.904;4.694;2022-09-01T02:48:40;18.50;99.90
8824;DHT22;4448;50.904;4.694;2022-09-01T02:51:12;18.50;99.90
8824;DHT22;4448;50.904;4.694;2022-09-01T02:53:39;18.80;99.90
8824;DHT22;4448;50.904;4.694;2022-09-01T02:56:09;18.70;99.90
8824;DHT22;4448;50.904;4.694;2022-09-01T02:58:40;18.60;99.90
8824;DHT22;4448;50.904;4.694;2022-09-01T03:01:15;18.50;99.90
8824;DHT22;4448;50.904;4.694;2022-09-01T03:03:45;18.40;99.90
8824;DHT22;4448;50.904;4.694;2022-09-01T03:06:16;18.30;99.90
8824;DHT22;4448;50.904;4.694;2022-09-01T03:08:44;18.40;99.90
8824;DHT22;4448;50.904;4.694;2022-09-01T03:11:11;18.40;99.90
8824;DHT22;4448;50.904;4.694;2022-09-01T03:13:39;18.30;99.90
8824;DHT22;4448;50.904;4.694;2022-09-01T03:16:06;18.40;99.90
8824;DHT22;4448;50.904;4.694;2022-09-01T03:18:32;18.30;99.90
8824;DHT22;4448;50.904;4.694;2022-09-01T03:20:58;18.30;99.90
8824;DHT22;4448;50.904;4.694;2022-09-01T03:23:24;18.20;99.90
8824;DHT22;4448;50.904;4.694;2022-09-01T03:25:50;18.10;99.90
8824;DHT22;4448;50.904;4.694;2022-09-01T03:28:17;18.10;99.90
8824;DHT22;4448;50.904;4.694;2022-09-01T03:30:46;18.20;99.90
8824;DHT22;4448;50.904;4.694;2022-09-01T03:33:14;18.10;99.90
8824;DHT22;4448;50.904;4.694;2022-09-01T03:35:42;18.10;99.90
8824;DHT22;4448;50.904;4.694;2022-09-01T03:38:08;18.00;99.90
8824;DHT22;4448;50.904;4.694;2022-09-01T03:40:35;17.90;99.90
8824;DHT22;4448;50.904;4.694;2022-09-01T03:43:02;17.90;99.90
8824;DHT22;4448;50.904;4.694;2022-09-01T03:45:29;17.80;99.90
8824;DHT22;4448;50.904;4.694;2022-09-01T03:47:55;17.80;99.90
8824;DHT22;4448;50.904;4.694;2022-09-01T03:50:23;17.80;99.90
8824;DHT22;4448;50.904;4.694;2022-09-01T03:52:58;17.70;99.90
8824;DHT22;4448;50.904;4.694;2022-09-01T03:55:32;17.70;99.90
8824;DHT22;4448;50.904;4.694;2022-09-01T03:58:02;17.70;99.90
8824;DHT22;4448;50.904;4.694;2022-09-01T04:00:33;17.70;99.90
8824;DHT22;4448;50.904;4.694;2022-09-01T04:03:02;17.70;99.90
8824;DHT22;4448;50.904;4.694;2022-09-01T04:05:30;17.60;99.90
8824;DHT22;4448;50.904;4.694;2022-09-01T04:08:01;17.50;99.90
8824;DHT22;4448;50.904;4.694;2022-09-01T04:10:32;17.40;99.90
8824;DHT22;4448;50.904;4.694;2022-09-01T04:13:01;17.40;99.90
8824;DHT22;4448;50.904;4.694;2022-09-01T04:15:27;17.30;99.90
8824;DHT22;4448;50.904;4.694;2022-09-01T04:17:53;17.30;99.90
8824;DHT22;4448;50.904;4.694;2022-09-01T04:20:41;17.20;99.90
8824;DHT22;4448;50.904;4.694;2022-09-01T04:23:25;17.20;99.90
8824;DHT22;4448;50.904;4.694;2022-09-01T04:25:53;17.10;99.90
8824;DHT22;4448;50.904;4.694;2022-09-01T04:28:22;17.00;99.90
8824;DHT22;4448;50.904;4.694;2022-09-01T04:30:56;17.00;99.90
8824;DHT22;4448;50.904;4.694;2022-09-01T04:33:27;16.90;99.90
8824;DHT22;4448;50.904;4.694;2022-09-01T04:36:06;16.90;99.90
8824;DHT22;4448;50.904;4.694;2022-09-01T04:38:32;16.80;99.90
8824;DHT22;4448;50.904;4.694;2022-09-01T04:41:05;16.80;99.90
8824;DHT22;4448;50.904;4.694;2022-09-01T04:43:34;16.70;99.90
8824;DHT22;4448;50.904;4.694;2022-09-01T04:46:01;16.60;99.90
8824;DHT22;4448;50.904;4.694;2022-09-01T04:48:28;16.60;99.90
8824;DHT22;4448;50.904;4.694;2022-09-01T04:50:56;16.60;99.90
8824;DHT22;4448;50.904;4.694;2022-09-01T04:53:22;16.50;99.90
8824;DHT22;4448;50.904;4.694;2022-09-01T04:55:49;16.40;99.90
8824;DHT22;4448;50.904;4.694;2022-09-01T04:58:19;16.40;99.90
8824;DHT22;4448;50.904;4.694;2022-09-01T05:00:48;16.40;99.90
8824;DHT22;4448;50.904;4.694;2022-09-01T05:03:16;16.40;99.90
8824;DHT22;4448;50.904;4.694;2022-09-01T05:05:46;16.40;99.90
8824;DHT22;4448;50.904;4.694;2022-09-01T05:08:18;16.40;99.90
8824;DHT22;4448;50.904;4.694;2022-09-01T05:10:47;16.70;99.90
8824;DHT22;4448;50.904;4.694;2022-09-01T05:13:18;16.40;99.90
8824;DHT22;4448;50.904;4.694;2022-09-01T05:15:47;16.50;99.90
8824;DHT22;4448;50.904;4.694;2022-09-01T05:18:25;16.50;99.90
8824;DHT22;4448;50.904;4.694;2022-09-01T05:20:53;16.50;99.90
8824;DHT22;4448;50.904;4.694;2022-09-01T05:23:20;16.50;99.90
8824;DHT22;4448;50.904;4.694;2022-09-01T05:25:49;16.60;99.90
8824;DHT22;4448;50.904;4.694;2022-09-01T05:28:18;16.50;99.90
8824;DHT22;4448;50.904;4.694;2022-09-01T05:30:46;16.40;99.90
8824;DHT22;4448;50.904;4.694;2022-09-01T05:33:14;16.50;99.90
8824;DHT22;4448;50.904;4.694;2022-09-01T05:35:55;16.50;99.90
8824;DHT22;4448;50.904;4.694;2022-09-01T05:38:23;16.50;99.90
8824;DHT22;4448;50.904;4.694;2022-09-01T05:41:01;16.60;99.90
8824;DHT22;4448;50.904;4.694;2022-09-01T05:43:30;16.60;99.90
8824;DHT22;4448;50.904;4.694;2022-09-01T05:45:59;16.60;99.90
8824;DHT22;4448;50.904;4.694;2022-09-01T05:48:26;16.90;99.90
8824;DHT22;4448;50.904;4.694;2022-09-01T05:50:55;17.00;99.90
8824;DHT22;4448;50.904;4.694;2022-09-01T05:53:22;16.80;99.90
8824;DHT22;4448;50.904;4.694;2022-09-01T05:55:50;17.00;99.90
8824;DHT22;4448;50.904;4.694;2022-09-01T05:58:26;17.20;99.90
8824;DHT22;4448;50.904;4.694;2022-09-01T06:00:53;17.10;99.90
8824;DHT22;4448;50.904;4.694;2022-09-01T06:03:21;17.20;99.90
8824;DHT22;4448;50.904;4.694;2022-09-01T06:05:47;17.30;99.90
8824;DHT22;4448;50.904;4.694;2022-09-01T06:08:19;17.30;99.90
8824;DHT22;4448;50.904;4.694;2022-09-01T06:10:46;17.40;99.90
8824;DHT22;4448;50.904;4.694;2022-09-01T06:13:15;17.40;99.90
8824;DHT22;4448;50.904;4.694;2022-09-01T06:15:42;17.50;99.90
8824;DHT22;4448;50.904;4.694;2022-09-01T06:18:10;17.50;99.90
8824;DHT22;4448;50.904;4.694;2022-09-01T06:20:41;17.60;99.90
8824;DHT22;4448;50.904;4.694;2022-09-01T06:23:08;17.60;99.90
8824;DHT22;4448;50.904;4.694;2022-09-01T06:25:37;17.70;99.90
8824;DHT22;4448;50.904;4.694;2022-09-01T06:28:04;17.70;99.90
8824;DHT22;4448;50.904;4.694;2022-09-01T06:30:30;17.70;99.90
8824;DHT22;4448;50.904;4.694;2022-09-01T06:33:01;17.80;99.90
8824;DHT22;4448;50.904;4.694;2022-09-01T06:35:30;17.80;99.90
8824;DHT22;4448;50.904;4.694;2022-09-01T06:37:56;17.80;99.90
8824;DHT22;4448;50.904;4.694;2022-09-01T06:40:23;18.10;99.90
8824;DHT22;4448;50.904;4.694;2022-09-01T06:42:51;18.20;99.90
8824;DHT22;4448;50.904;4.694;2022-09-01T06:45:19;18.20;99.90
8824;DHT22;4448;50.904;4.694;2022-09-01T06:47:46;18.30;99.90
8824;DHT22;4448;50.904;4.694;2022-09-01T06:50:14;18.40;99.90
8824;DHT22;4448;50.904;4.694;2022-09-01T06:52:43;18.50;99.90
8824;DHT22;4448;50.904;4.694;2022-09-01T06:55:13;18.60;99.90
8824;DHT22;4448;50.904;4.694;2022-09-01T06:57:41;18.70;99.90
8824;DHT22;4448;50.904;4.694;2022-09-01T07:00:11;18.70;99.90
8824;DHT22;4448;50.904;4.694;2022-09-01T07:02:47;18.80;99.90
8824;DHT22;4448;50.904;4.694;2022-09-01T07:05:17;18.90;99.90
8824;DHT22;4448;50.904;4.694;2022-09-01T07:07:49;19.00;99.90
8824;DHT22;4448;50.904;4.694;2022-09-01T07:10:17;19.10;99.90
8824;DHT22;4448;50.904;4.694;2022-09-01T07:12:55;19.10;99.90
8824;DHT22;4448;50.904;4.694;2022-09-01T07:15:22;19.30;99.90
8824;DHT22;4448;50.904;4.694;2022-09-01T07:17:53;19.40;99.90
8824;DHT22;4448;50.904;4.694;2022-09-01T07:20:22;19.50;99.90
8824;DHT22;4448;50.904;4.694;2022-09-01T07:22:49;19.60;99.90
8824;DHT22;4448;50.904;4.694;2022-09-01T07:25:15;20.00;99.90
8824;DHT22;4448;50.904;4.694;2022-09-01T07:27:43;20.50;99.90
8824;DHT22;4448;50.904;4.694;2022-09-01T07:30:19;20.80;99.90
8824;DHT22;4448;50.904;4.694;2022-09-01T07:32:46;20.90;99.90
8824;DHT22;4448;50.904;4.694;2022-09-01T07:35:16;21.20;99.90
8824;DHT22;4448;50.904;4.694;2022-09-01T07:37:44;21.60;99.90
8824;DHT22;4448;50.904;4.694;2022-09-01T07:40:13;21.90;99.90
8824;DHT22;4448;50.904;4.694;2022-09-01T07:42:42;22.30;99.90
8824;DHT22;4448;50.904;4.694;2022-09-01T07:45:09;22.10;99.90
8824;DHT22;4448;50.904;4.694;2022-09-01T07:47:35;22.30;99.90
8824;DHT22;4448;50.904;4.694;2022-09-01T07:50:06;22.50;99.90
8824;DHT22;4448;50.904;4.694;2022-09-01T07:52:37;22.70;99.90
8824;DHT22;4448;50.904;4.694;2022-09-01T07:55:15;22.90;99.90
8824;DHT22;4448;50.904;4.694;2022-09-01T07:57:43;23.20;99.90
8824;DHT22;4448;50.904;4.694;2022-09-01T08:00:12;23.20;99.90
8824;DHT22;4448;50.904;4.694;2022-09-01T08:02:38;23.50;99.90
8824;DHT22;4448;50.904;4.694;2022-09-01T08:05:11;23.50;99.90
8824;DHT22;4448;50.904;4.694;2022-09-01T08:07:38;23.60;99.90
8824;DHT22;4448;50.904;4.694;2022-09-01T08:10:05;23.80;99.90
8824;DHT22;4448;50.904;4.694;2022-09-01T08:12:31;23.60;99.90
8824;DHT22;4448;50.904;4.694;2022-09-01T08:14:57;23.80;99.90
8824;DHT22;4448;50.904;4.694;2022-09-01T08:17:23;23.90;99.90
8824;DHT22;4448;50.904;4.694;2022-09-01T08:19:49;24.00;99.90
8824;DHT22;4448;50.904;4.694;2022-09-01T08:22:15;24.10;99.90
8824;DHT22;4448;50.904;4.694;2022-09-01T08:24:41;24.10;99.90
8824;DHT22;4448;50.904;4.694;2022-09-01T08:27:07;24.60;99.90
8824;DHT22;4448;50.904;4.694;2022-09-01T08:29:32;24.30;99.90
8824;DHT22;4448;50.904;4.694;2022-09-01T08:32:00;24.30;99.90
8824;DHT22;4448;50.904;4.694;2022-09-01T08:34:27;24.60;99.90
8824;DHT22;4448;50.904;4.694;2022-09-01T08:36:52;24.90;99.90
8824;DHT22;4448;50.904;4.694;2022-09-01T08:39:18;25.00;99.90
8824;DHT22;4448;50.904;4.694;2022-09-01T08:47:01;24.90;99.90
8824;DHT22;4448;50.904;4.694;2022-09-01T08:49:28;25.10;99.90
8824;DHT22;4448;50.904;4.694;2022-09-01T08:52:16;24.60;99.90
8824;DHT22;4448;50.904;4.694;2022-09-01T08:57:20;26.00;99.90
8824;DHT22;4448;50.904;4.694;2022-09-01T08:59:47;26.00;99.90
8824;DHT22;4448;50.904;4.694;2022-09-01T09:02:39;26.00;99.90
8824;DHT22;4448;50.904;4.694;2022-09-01T09:16:58;27.30;99.90
8824;DHT22;4448;50.904;4.694;2022-09-01T09:19:34;26.90;99.90
8824;DHT22;4448;50.904;4.694;2022-09-01T09:22:03;26.70;99.90
8824;DHT22;4448;50.904;4.694;2022-09-01T09:35:28;26.70;99.90
8824;DHT22;4448;50.904;4.694;2022-09-01T09:43:25;26.70;99.90
8824;DHT22;4448;50.904;4.694;2022-09-01T09:51:43;27.70;99.90
8824;DHT22;4448;50.904;4.694;2022-09-01T09:54:25;27.90;99.90
8824;DHT22;4448;50.904;4.694;2022-09-01T09:59:47;27.70;99.90
8824;DHT22;4448;50.904;4.694;2022-09-01T10:04:46;28.10;99.90
8824;DHT22;4448;50.904;4.694;2022-09-01T10:07:27;28.40;99.90
8824;DHT22;4448;50.904;4.694;2022-09-01T10:09:54;28.10;99.90
8824;DHT22;4448;50.904;4.694;2022-09-01T10:12:24;28.10;99.90
8824;DHT22;4448;50.904;4.694;2022-09-01T10:14:54;28.20;99.90
8824;DHT22;4448;50.904;4.694;2022-09-01T10:17:42;28.40;98.80
8824;DHT22;4448;50.904;4.694;2022-09-01T10:20:13;28.00;99.00
8824;DHT22;4448;50.904;4.694;2022-09-01T10:22:42;28.20;98.40
8824;DHT22;4448;50.904;4.694;2022-09-01T10:25:15;28.40;98.70
8824;DHT22;4448;50.904;4.694;2022-09-01T10:27:48;29.10;99.10
8824;DHT22;4448;50.904;4.694;2022-09-01T10:30:19;29.20;98.20
8824;DHT22;4448;50.904;4.694;2022-09-01T10:32:52;28.70;98.40
8824;DHT22;4448;50.904;4.694;2022-09-01T10:37:53;28.50;98.00
8824;DHT22;4448;50.904;4.694;2022-09-01T10:42:59;29.10;97.90
8824;DHT22;4448;50.904;4.694;2022-09-01T10:45:45;29.20;97.70
8824;DHT22;4448;50.904;4.694;2022-09-01T10:48:27;29.60;97.40
8824;DHT22;4448;50.904;4.694;2022-09-01T10:53:47;29.90;96.90
8824;DHT22;4448;50.904;4.694;2022-09-01T10:56:53;30.00;96.00
8824;DHT22;4448;50.904;4.694;2022-09-01T11:22:35;30.80;95.40
8824;DHT22;4448;50.904;4.694;2022-09-01T11:33:02;30.60;97.00
8824;DHT22;4448;50.904;4.694;2022-09-01T11:35:32;30.80;91.50
8824;DHT22;4448;50.904;4.694;2022-09-01T11:38:03;31.20;91.20
8824;DHT22;4448;50.904;4.694;2022-09-01T11:42:59;31.20;91.40
8824;DHT22;4448;50.904;4.694;2022-09-01T11:45:29;31.50;93.20
8824;DHT22;4448;50.904;4.694;2022-09-01T11:48:07;31.70;95.70
8824;DHT22;4448;50.904;4.694;2022-09-01T11:50:38;31.20;94.70
8824;DHT22;4448;50.904;4.694;2022-09-01T11:55:36;31.30;92.70
8824;DHT22;4448;50.904;4.694;2022-09-01T11:58:03;31.10;93.50
8824;DHT22;4448;50.904;4.694;2022-09-01T12:00:32;31.30;93.30
8824;DHT22;4448;50.904;4.694;2022-09-01T12:03:20;31.70;93.70
8824;DHT22;4448;50.904;4.694;2022-09-01T12:05:51;31.70;93.70
8824;DHT22;4448;50.904;4.694;2022-09-01T12:08:19;31.10;93.00
8824;DHT22;4448;50.904;4.694;2022-09-01T12:10:46;31.10;93.30
8824;DHT22;4448;50.904;4.694;2022-09-01T12:13:21;31.30;93.10
8824;DHT22;4448;50.904;4.694;2022-09-01T12:15:58;30.90;94.70
8824;DHT22;4448;50.904;4.694;2022-09-01T12:18:27;31.20;91.80
8824;DHT22;4448;50.904;4.694;2022-09-01T12:20:56;31.20;91.00
8824;DHT22;4448;50.904;4.694;2022-09-01T12:25:55;31.40;92.20
8824;DHT22;4448;50.904;4.694;2022-09-01T12:28:24;31.80;90.70
8824;DHT22;4448;50.904;4.694;2022-09-01T12:30:51;31.80;90.90
8824;DHT22;4448;50.904;4.694;2022-09-01T12:33:18;32.20;91.40
8824;DHT22;4448;50.904;4.694;2022-09-01T12:35:45;32.30;89.90
8824;DHT22;4448;50.904;4.694;2022-09-01T12:38:24;32.60;90.40
8824;DHT22;4448;50.904;4.694;2022-09-01T12:40:54;32.90;88.30
8824;DHT22;4448;50.904;4.694;2022-09-01T12:45:52;32.70;90.30
8824;DHT22;4448;50.904;4.694;2022-09-01T12:48:36;32.60;90.00
8824;DHT22;4448;50.904;4.694;2022-09-01T12:51:23;32.60;88.80
8824;DHT22;4448;50.904;4.694;2022-09-01T12:54:00;33.40;90.30
8824;DHT22;4448;50.904;4.694;2022-09-01T12:56:29;32.60;93.20
8824;DHT22;4448;50.904;4.694;2022-09-01T12:59:11;32.20;93.30
8824;DHT22;4448;50.904;4.694;2022-09-01T13:01:41;32.30;93.70
8824;DHT22;4448;50.904;4.694;2022-09-01T13:06:46;33.80;84.10
8824;DHT22;4448;50.904;4.694;2022-09-01T13:09:11;34.40;84.80
8824;DHT22;4448;50.904;4.694;2022-09-01T13:11:38;34.20;83.30
8824;DHT22;4448;50.904;4.694;2022-09-01T13:14:04;33.80;84.10
8824;DHT22;4448;50.904;4.694;2022-09-01T13:16:30;34.00;83.10
8824;DHT22;4448;50.904;4.694;2022-09-01T13:18:55;33.90;80.80
8824;DHT22;4448;50.904;4.694;2022-09-01T13:21:22;34.30;79.90
8824;DHT22;4448;50.904;4.694;2022-09-01T13:23:48;35.00;81.30
8824;DHT22;4448;50.904;4.694;2022-09-01T13:26:14;35.50;78.60
8824;DHT22;4448;50.904;4.694;2022-09-01T13:28:40;35.70;78.90
8824;DHT22;4448;50.904;4.694;2022-09-01T13:31:06;35.50;75.90
8824;DHT22;4448;50.904;4.694;2022-09-01T13:33:35;35.60;80.20
8824;DHT22;4448;50.904;4.694;2022-09-01T13:38:27;35.40;78.00
8824;DHT22;4448;50.904;4.694;2022-09-01T13:40:53;34.60;73.80
8824;DHT22;4448;50.904;4.694;2022-09-01T13:43:21;33.70;77.80
8824;DHT22;4448;50.904;4.694;2022-09-01T13:45:48;32.80;79.20
8824;DHT22;4448;50.904;4.694;2022-09-01T13:48:15;33.00;80.30
8824;DHT22;4448;50.904;4.694;2022-09-01T13:50:41;33.40;82.90
8824;DHT22;4448;50.904;4.694;2022-09-01T13:55:37;34.00;77.90
8824;DHT22;4448;50.904;4.694;2022-09-01T13:58:04;34.80;78.50
8824;DHT22;4448;50.904;4.694;2022-09-01T14:00:32;35.10;82.50
8824;DHT22;4448;50.904;4.694;2022-09-01T14:03:04;35.50;86.00
8824;DHT22;4448;50.904;4.694;2022-09-01T14:05:34;34.10;75.70
8824;DHT22;4448;50.904;4.694;2022-09-01T14:08:00;34.00;73.50
8824;DHT22;4448;50.904;4.694;2022-09-01T14:12:53;34.30;76.20
8824;DHT22;4448;50.904;4.694;2022-09-01T14:15:20;34.00;74.70
8824;DHT22;4448;50.904;4.694;2022-09-01T14:17:48;33.00;76.70
8824;DHT22;4448;50.904;4.694;2022-09-01T14:20:19;32.90;72.90
8824;DHT22;4448;50.904;4.694;2022-09-01T14:22:47;33.10;72.60
8824;DHT22;4448;50.904;4.694;2022-09-01T14:25:14;33.20;72.60
8824;DHT22;4448;50.904;4.694;2022-09-01T14:30:08;33.00;73.40
8824;DHT22;4448;50.904;4.694;2022-09-01T14:32:35;32.60;75.00
8824;DHT22;4448;50.904;4.694;2022-09-01T14:35:01;33.00;74.80
8824;DHT22;4448;50.904;4.694;2022-09-01T14:37:27;33.40;74.20
8824;DHT22;4448;50.904;4.694;2022-09-01T14:39:55;33.40;75.40
8824;DHT22;4448;50.904;4.694;2022-09-01T14:42:21;33.40;72.80
8824;DHT22;4448;50.904;4.694;2022-09-01T14:44:50;33.50;74.90
8824;DHT22;4448;50.904;4.694;2022-09-01T14:49:43;33.90;69.80
8824;DHT22;4448;50.904;4.694;2022-09-01T14:52:09;33.80;70.10
8824;DHT22;4448;50.904;4.694;2022-09-01T14:54:37;33.70;71.40
8824;DHT22;4448;50.904;4.694;2022-09-01T14:59:31;32.90;72.90
8824;DHT22;4448;50.904;4.694;2022-09-01T15:01:57;32.70;76.00
8824;DHT22;4448;50.904;4.694;2022-09-01T15:04:23;33.00;74.70
8824;DHT22;4448;50.904;4.694;2022-09-01T15:09:15;33.20;77.00
8824;DHT22;4448;50.904;4.694;2022-09-01T15:11:41;33.70;72.90
8824;DHT22;4448;50.904;4.694;2022-09-01T15:14:07;33.80;73.00
8824;DHT22;4448;50.904;4.694;2022-09-01T15:16:34;34.00;72.50
8824;DHT22;4448;50.904;4.694;2022-09-01T15:19:08;34.50;72.20
8824;DHT22;4448;50.904;4.694;2022-09-01T15:21:36;34.50;74.40
8824;DHT22;4448;50.904;4.694;2022-09-01T15:24:04;34.30;75.30
8824;DHT22;4448;50.904;4.694;2022-09-01T15:26:30;34.20;71.80
8824;DHT22;4448;50.904;4.694;2022-09-01T15:28:57;34.10;70.30
8824;DHT22;4448;50.904;4.694;2022-09-01T15:31:24;34.20;70.60
8824;DHT22;4448;50.904;4.694;2022-09-01T15:33:55;33.90;66.10
8824;DHT22;4448;50.904;4.694;2022-09-01T15:36:22;33.80;66.50
8824;DHT22;4448;50.904;4.694;2022-09-01T15:38:48;34.10;66.40
8824;DHT22;4448;50.904;4.694;2022-09-01T15:41:19;33.70;66.90
8824;DHT22;4448;50.904;4.694;2022-09-01T15:43:46;33.50;67.10
8824;DHT22;4448;50.904;4.694;2022-09-01T15:46:11;33.40;67.60
8824;DHT22;4448;50.904;4.694;2022-09-01T15:48:39;33.30;68.00
8824;DHT22;4448;50.904;4.694;2022-09-01T15:53:49;33.40;67.50
8824;DHT22;4448;50.904;4.694;2022-09-01T15:56:15;32.80;69.20
8824;DHT22;4448;50.904;4.694;2022-09-01T15:58:48;32.80;70.00
8824;DHT22;4448;50.904;4.694;2022-09-01T16:01:15;33.60;69.40
8824;DHT22;4448;50.904;4.694;2022-09-01T16:03:41;34.20;69.10
8824;DHT22;4448;50.904;4.694;2022-09-01T16:06:07;34.50;69.40
8824;DHT22;4448;50.904;4.694;2022-09-01T16:08:34;34.90;69.10
8824;DHT22;4448;50.904;4.694;2022-09-01T16:11:04;35.60;73.60
8824;DHT22;4448;50.904;4.694;2022-09-01T16:13:34;35.80;66.40
8824;DHT22;4448;50.904;4.694;2022-09-01T16:21:25;34.60;65.50
8824;DHT22;4448;50.904;4.694;2022-09-01T16:23:54;34.60;65.50
8824;DHT22;4448;50.904;4.694;2022-09-01T16:26:21;34.20;67.50
8824;DHT22;4448;50.904;4.694;2022-09-01T16:28:55;34.30;67.90
8824;DHT22;4448;50.904;4.694;2022-09-01T16:31:25;34.40;68.10
8824;DHT22;4448;50.904;4.694;2022-09-01T16:33:54;34.90;69.80
8824;DHT22;4448;50.904;4.694;2022-09-01T16:36:36;34.90;67.80
8824;DHT22;4448;50.904;4.694;2022-09-01T16:41:50;34.80;69.40
8824;DHT22;4448;50.904;4.694;2022-09-01T16:44:47;35.10;68.10
8824;DHT22;4448;50.904;4.694;2022-09-01T16:50:53;35.00;69.30
8824;DHT22;4448;50.904;4.694;2022-09-01T16:53:11;34.90;65.20
8824;DHT22;4448;50.904;4.694;2022-09-01T16:59:01;35.00;65.10
8824;DHT22;4448;50.904;4.694;2022-09-01T17:04:27;34.40;67.30
8824;DHT22;4448;50.904;4.694;2022-09-01T17:09:42;34.00;69.00
8824;DHT22;4448;50.904;4.694;2022-09-01T17:12:35;33.80;68.60
8824;DHT22;4448;50.904;4.694;2022-09-01T17:15:15;33.70;69.30
8824;DHT22;4448;50.904;4.694;2022-09-01T17:20:24;32.50;70.90
8824;DHT22;4448;50.904;4.694;2022-09-01T17:22:56;32.30;78.40
8824;DHT22;4448;50.904;4.694;2022-09-01T17:25:30;31.60;77.20
8824;DHT22;4448;50.904;4.694;2022-09-01T17:28:05;30.90;80.70
8824;DHT22;4448;50.904;4.694;2022-09-01T17:55:09;28.90;90.70
8824;DHT22;4448;50.904;4.694;2022-09-01T18:02:57;27.80;88.60
8824;DHT22;4448;50.904;4.694;2022-09-01T18:05:38;27.60;90.00
8824;DHT22;4448;50.904;4.694;2022-09-01T18:08:30;27.30;97.00
8824;DHT22;4448;50.904;4.694;2022-09-01T18:13:37;27.00;95.40
8824;DHT22;4448;50.904;4.694;2022-09-01T18:16:09;26.70;92.60
8824;DHT22;4448;50.904;4.694;2022-09-01T18:18:38;26.60;92.80
8824;DHT22;4448;50.904;4.694;2022-09-01T18:21:18;26.40;93.70
8824;DHT22;4448;50.904;4.694;2022-09-01T18:23:50;26.20;94.40
8824;DHT22;4448;50.904;4.694;2022-09-01T18:26:27;26.30;95.20
8824;DHT22;4448;50.904;4.694;2022-09-01T18:28:58;26.10;96.90
8824;DHT22;4448;50.904;4.694;2022-09-01T18:34:21;25.90;97.50
8824;DHT22;4448;50.904;4.694;2022-09-01T19:01:34;24.50;93.00
8824;DHT22;4448;50.904;4.694;2022-09-01T19:27:34;24.30;94.80
8824;DHT22;4448;50.904;4.694;2022-09-01T19:30:04;24.20;92.80
8824;DHT22;4448;50.904;4.694;2022-09-01T19:32:31;24.20;93.60
8824;DHT22;4448;50.904;4.694;2022-09-01T19:35:06;24.00;93.70
8824;DHT22;4448;50.904;4.694;2022-09-01T19:37:35;23.90;93.90
8824;DHT22;4448;50.904;4.694;2022-09-01T19:40:03;23.90;95.90
8824;DHT22;4448;50.904;4.694;2022-09-01T19:45:13;23.70;94.00
8824;DHT22;4448;50.904;4.694;2022-09-01T19:55:53;23.20;93.70
8824;DHT22;4448;50.904;4.694;2022-09-01T19:58:43;23.00;94.60
8824;DHT22;4448;50.904;4.694;2022-09-01T20:01:15;22.80;95.20
8824;DHT22;4448;50.904;4.694;2022-09-01T20:03:56;22.70;95.50
8824;DHT22;4448;50.904;4.694;2022-09-01T20:11:51;22.30;96.20
8824;DHT22;4448;50.904;4.694;2022-09-01T20:16:50;22.40;98.60
8824;DHT22;4448;50.904;4.694;2022-09-01T20:22:31;22.30;95.90
8824;DHT22;4448;50.904;4.694;2022-09-01T20:27:45;21.10;95.20
8824;DHT22;4448;50.904;4.694;2022-09-01T20:32:44;22.30;96.20